Etusivu
METAR-TAF:

METAR-TAF

Lentoasemat :

Tillamook, Oregon, Yhdysvallat

Leveyspiiri: 45-25-06N, Pituuspiiri: 123-48-52W, korkeus merenpinnasta: 11 m

Tämänhetkinen sää

Tämä raportti tehtiin 31 minuuttia sitten, kello 02.15 UTC
tyyntä
Lämpötila 3°C
Kosteus 93%
Ilmanpaine 1026 hPa
Näkyvyys: 11.3 km
selkeää

METAR: KTMK 230215Z AUTO 00000KT 7SM CLR 03/02 A3031 RMK AO2

Aika: 18:46 (02:46 UTC)


TAF: puuttuu

Säähavainnot ja -ennusteet yli 4000 lentoasemalta (METAR- ja TAF-raportit).

Käytössä olevat sääasemat on merkitty karttaan keltaisilla ja punaisilla pisteillä.

Aseta hiiri pisteen päälle nähdäksesi sääaseman nimen.

Klikkaa sitten nähdäksesi säähavainnot ja -ennusteet.

Kartan vaihtaminen: klikkaa mustalla rastilla varustettuja vihreitä pisteitä, niin voit zoomata sisään; viivalla varustettua vihreää pistettä, niin voit zoomata ulos tai vihreitä nuolia, niin pääset viereisille kartoille.


METAR-TAF: